Aviation Digital Data Service (ADDS)

Output produced by METARs form (2118 UTC 06 December 2019)
found at http://www.aviationweather.gov/metar/data/
 
METAR text: LPMA 062100Z 02013KT 340V070 9999 SCT015 SCT030 18/11 Q1023
Conditions at: LPMA (FUNCHAL/MADEIRA , PT) observed 2100 UTC 06 December 2019
Temperature: 18.0°C (64°F)
Dewpoint: 11.0°C (52°F) [RH = 64%]
Pressure (altimeter): 30.21 inches Hg (1023.0 mb)
Winds: from the NNE (20 degrees) at 15 MPH (13 knots; 6.7 m/s)
Visibility: 6 or more miles (10+ km)
Ceiling: at least 12,000 feet AGL
Clouds: scattered clouds at 1500 feet AGL
scattered clouds at 3000 feet AGL
Weather: no significant weather observed at this time

METAR text: LPMA 062030Z 02011KT 350V050 9999 SCT015 SCT030 18/11 Q1023
Conditions at: LPMA (FUNCHAL/MADEIRA , PT) observed 2030 UTC 06 December 2019
Temperature: 18.0°C (64°F)
Dewpoint: 11.0°C (52°F) [RH = 64%]
Pressure (altimeter): 30.21 inches Hg (1023.0 mb)
Winds: from the NNE (20 degrees) at 13 MPH (11 knots; 5.7 m/s)
Visibility: 6 or more miles (10+ km)
Ceiling: at least 12,000 feet AGL
Clouds: scattered clouds at 1500 feet AGL
scattered clouds at 3000 feet AGL
Weather: no significant weather observed at this time

METAR text: LPMA 062000Z 03018G31KT 360V060 9999 SCT015 SCT030 18/12 Q1022
Conditions at: LPMA (FUNCHAL/MADEIRA , PT) observed 2000 UTC 06 December 2019
Temperature: 18.0°C (64°F)
Dewpoint: 12.0°C (54°F) [RH = 68%]
Pressure (altimeter): 30.18 inches Hg (1022.0 mb)
Winds: from the NNE (30 degrees) at 21 MPH (18 knots; 9.3 m/s)
gusting to 36 MPH (31 knots; 15.9 m/s)
Visibility: 6 or more miles (10+ km)
Ceiling: at least 12,000 feet AGL
Clouds: scattered clouds at 1500 feet AGL
scattered clouds at 3000 feet AGL
Weather: no significant weather observed at this time

METAR text: LPMA 061930Z 02018KT 9999 SCT015 SCT030 18/13 Q1022
Conditions at: LPMA (FUNCHAL/MADEIRA , PT) observed 1930 UTC 06 December 2019
Temperature: 18.0°C (64°F)
Dewpoint: 13.0°C (55°F) [RH = 73%]
Pressure (altimeter): 30.18 inches Hg (1022.0 mb)
Winds: from the NNE (20 degrees) at 21 MPH (18 knots; 9.3 m/s)
Visibility: 6 or more miles (10+ km)
Ceiling: at least 12,000 feet AGL
Clouds: scattered clouds at 1500 feet AGL
scattered clouds at 3000 feet AGL
Weather: no significant weather observed at this time

METAR text: LPMA 061900Z 02016KT 9999 -SHRA SCT016 SCT030 18/13 Q1022
Conditions at: LPMA (FUNCHAL/MADEIRA , PT) observed 1900 UTC 06 December 2019
Temperature: 18.0°C (64°F)
Dewpoint: 13.0°C (55°F) [RH = 73%]
Pressure (altimeter): 30.18 inches Hg (1022.0 mb)
Winds: from the NNE (20 degrees) at 18 MPH (16 knots; 8.2 m/s)
Visibility: 6 or more miles (10+ km)
Ceiling: at least 12,000 feet AGL
Clouds: scattered clouds at 1600 feet AGL
scattered clouds at 3000 feet AGL
Weather: -SHRA  (light rain showers)

METAR text: LPMA 061830Z 03017G35KT 350V060 9999 SCT016 SCT030 18/13 Q1021
Conditions at: LPMA (FUNCHAL/MADEIRA , PT) observed 1830 UTC 06 December 2019
Temperature: 18.0°C (64°F)
Dewpoint: 13.0°C (55°F) [RH = 73%]
Pressure (altimeter): 30.15 inches Hg (1021.0 mb)
Winds: from the NNE (30 degrees) at 20 MPH (17 knots; 8.7 m/s)
gusting to 40 MPH (35 knots; 18.0 m/s)
Visibility: 6 or more miles (10+ km)
Ceiling: at least 12,000 feet AGL
Clouds: scattered clouds at 1600 feet AGL
scattered clouds at 3000 feet AGL
Weather: no significant weather observed at this time

METAR text: LPMA 061800Z 01016KT 340V050 9999 SCT016 SCT030 18/12 Q1021
Conditions at: LPMA (FUNCHAL/MADEIRA , PT) observed 1800 UTC 06 December 2019
Temperature: 18.0°C (64°F)
Dewpoint: 12.0°C (54°F) [RH = 68%]
Pressure (altimeter): 30.15 inches Hg (1021.0 mb)
Winds: from the N (10 degrees) at 18 MPH (16 knots; 8.2 m/s)
Visibility: 6 or more miles (10+ km)
Ceiling: at least 12,000 feet AGL
Clouds: scattered clouds at 1600 feet AGL
scattered clouds at 3000 feet AGL
Weather: no significant weather observed at this time

METAR text: LPMA 061730Z 02016G29KT 340V050 9999 VCSH SCT016 SCT030 18/12 Q1021
Conditions at: LPMA (FUNCHAL/MADEIRA , PT) observed 1730 UTC 06 December 2019
Temperature: 18.0°C (64°F)
Dewpoint: 12.0°C (54°F) [RH = 68%]
Pressure (altimeter): 30.15 inches Hg (1021.0 mb)
Winds: from the NNE (20 degrees) at 18 MPH (16 knots; 8.2 m/s)
gusting to 33 MPH (29 knots; 14.9 m/s)
Visibility: 6 or more miles (10+ km)
Ceiling: at least 12,000 feet AGL
Clouds: scattered clouds at 1600 feet AGL
scattered clouds at 3000 feet AGL
Weather: VCSH  (showers in vicinity)

METAR text: LPMA 061700Z 01014G25KT 330V040 9999 SCT016 SCT030 19/13 Q1021
Conditions at: LPMA (FUNCHAL/MADEIRA , PT) observed 1700 UTC 06 December 2019
Temperature: 19.0°C (66°F)
Dewpoint: 13.0°C (55°F) [RH = 68%]
Pressure (altimeter): 30.15 inches Hg (1021.0 mb)
Winds: from the N (10 degrees) at 16 MPH (14 knots; 7.2 m/s)
gusting to 29 MPH (25 knots; 12.9 m/s)
Visibility: 6 or more miles (10+ km)
Ceiling: at least 12,000 feet AGL
Clouds: scattered clouds at 1600 feet AGL
scattered clouds at 3000 feet AGL
Weather: no significant weather observed at this time

METAR text: LPMA 061630Z 36017G29KT 330V030 9999 SCT016 SCT030 19/12 Q1021
Conditions at: LPMA (FUNCHAL/MADEIRA , PT) observed 1630 UTC 06 December 2019
Temperature: 19.0°C (66°F)
Dewpoint: 12.0°C (54°F) [RH = 64%]
Pressure (altimeter): 30.15 inches Hg (1021.0 mb)
Winds: from the N (360 degrees) at 20 MPH (17 knots; 8.7 m/s)
gusting to 33 MPH (29 knots; 14.9 m/s)
Visibility: 6 or more miles (10+ km)
Ceiling: at least 12,000 feet AGL
Clouds: scattered clouds at 1600 feet AGL
scattered clouds at 3000 feet AGL
Weather: no significant weather observed at this time

METAR text: LPMA 061600Z 01019G29KT 330V040 9999 SCT016 SCT030 19/11 Q1020
Conditions at: LPMA (FUNCHAL/MADEIRA , PT) observed 1600 UTC 06 December 2019
Temperature: 19.0°C (66°F)
Dewpoint: 11.0°C (52°F) [RH = 60%]
Pressure (altimeter): 30.12 inches Hg (1020.0 mb)
Winds: from the N (10 degrees) at 22 MPH (19 knots; 9.8 m/s)
gusting to 33 MPH (29 knots; 14.9 m/s)
Visibility: 6 or more miles (10+ km)
Ceiling: at least 12,000 feet AGL
Clouds: scattered clouds at 1600 feet AGL
scattered clouds at 3000 feet AGL
Weather: no significant weather observed at this time

METAR text: LPMA 061530Z 01017G35KT 330V050 9999 VCSH SCT016 SCT030 19/12 Q1021
Conditions at: LPMA (FUNCHAL/MADEIRA , PT) observed 1530 UTC 06 December 2019
Temperature: 19.0°C (66°F)
Dewpoint: 12.0°C (54°F) [RH = 64%]
Pressure (altimeter): 30.15 inches Hg (1021.0 mb)
Winds: from the N (10 degrees) at 20 MPH (17 knots; 8.7 m/s)
gusting to 40 MPH (35 knots; 18.0 m/s)
Visibility: 6 or more miles (10+ km)
Ceiling: at least 12,000 feet AGL
Clouds: scattered clouds at 1600 feet AGL
scattered clouds at 3000 feet AGL
Weather: VCSH  (showers in vicinity)

METAR text: LPMA 061500Z 36014G24KT 330V030 9999 SCT016 SCT030 18/12 Q1021
Conditions at: LPMA (FUNCHAL/MADEIRA , PT) observed 1500 UTC 06 December 2019
Temperature: 18.0°C (64°F)
Dewpoint: 12.0°C (54°F) [RH = 68%]
Pressure (altimeter): 30.15 inches Hg (1021.0 mb)
Winds: from the N (360 degrees) at 16 MPH (14 knots; 7.2 m/s)
gusting to 28 MPH (24 knots; 12.3 m/s)
Visibility: 6 or more miles (10+ km)
Ceiling: at least 12,000 feet AGL
Clouds: scattered clouds at 1600 feet AGL
scattered clouds at 3000 feet AGL
Weather: no significant weather observed at this time

METAR text: LPMA 061430Z 01014KT 290V030 9999 VCSH SCT016 SCT030 18/12 Q1021
Conditions at: LPMA (FUNCHAL/MADEIRA , PT) observed 1430 UTC 06 December 2019
Temperature: 18.0°C (64°F)
Dewpoint: 12.0°C (54°F) [RH = 68%]
Pressure (altimeter): 30.15 inches Hg (1021.0 mb)
Winds: from the N (10 degrees) at 16 MPH (14 knots; 7.2 m/s)
Visibility: 6 or more miles (10+ km)
Ceiling: at least 12,000 feet AGL
Clouds: scattered clouds at 1600 feet AGL
scattered clouds at 3000 feet AGL
Weather: VCSH  (showers in vicinity)

METAR text: LPMA 061400Z 36010KT 320V050 9999 SCT016 SCT030 18/12 Q1021
Conditions at: LPMA (FUNCHAL/MADEIRA , PT) observed 1400 UTC 06 December 2019
Temperature: 18.0°C (64°F)
Dewpoint: 12.0°C (54°F) [RH = 68%]
Pressure (altimeter): 30.15 inches Hg (1021.0 mb)
Winds: from the N (360 degrees) at 12 MPH (10 knots; 5.1 m/s)
Visibility: 6 or more miles (10+ km)
Ceiling: at least 12,000 feet AGL
Clouds: scattered clouds at 1600 feet AGL
scattered clouds at 3000 feet AGL
Weather: no significant weather observed at this time

METAR text: LPMA 061330Z 01014G28KT 320V050 9999 SCT016 SCT030 17/12 Q1021
Conditions at: LPMA (FUNCHAL/MADEIRA , PT) observed 1330 UTC 06 December 2019
Temperature: 17.0°C (63°F)
Dewpoint: 12.0°C (54°F) [RH = 72%]
Pressure (altimeter): 30.15 inches Hg (1021.0 mb)
Winds: from the N (10 degrees) at 16 MPH (14 knots; 7.2 m/s)
gusting to 32 MPH (28 knots; 14.4 m/s)
Visibility: 6 or more miles (10+ km)
Ceiling: at least 12,000 feet AGL
Clouds: scattered clouds at 1600 feet AGL
scattered clouds at 3000 feet AGL
Weather: no significant weather observed at this time

METAR text: LPMA 061300Z 01017KT 340V040 9999 -SHRA SCT016 BKN030 18/11 Q1022
Conditions at: LPMA (FUNCHAL/MADEIRA , PT) observed 1300 UTC 06 December 2019
Temperature: 18.0°C (64°F)
Dewpoint: 11.0°C (52°F) [RH = 64%]
Pressure (altimeter): 30.18 inches Hg (1022.0 mb)
Winds: from the N (10 degrees) at 20 MPH (17 knots; 8.7 m/s)
Visibility: 6 or more miles (10+ km)
Ceiling: 3000 feet AGL
Clouds: scattered clouds at 1600 feet AGL
broken clouds at 3000 feet AGL
Weather: -SHRA  (light rain showers)

METAR text: LPMA 061230Z 01013G23KT 330V040 9999 SCT016 BKN030 18/11 Q1022
Conditions at: LPMA (FUNCHAL/MADEIRA , PT) observed 1230 UTC 06 December 2019
Temperature: 18.0°C (64°F)
Dewpoint: 11.0°C (52°F) [RH = 64%]
Pressure (altimeter): 30.18 inches Hg (1022.0 mb)
Winds: from the N (10 degrees) at 15 MPH (13 knots; 6.7 m/s)
gusting to 26 MPH (23 knots; 11.8 m/s)
Visibility: 6 or more miles (10+ km)
Ceiling: 3000 feet AGL
Clouds: scattered clouds at 1600 feet AGL
broken clouds at 3000 feet AGL
Weather: no significant weather observed at this time

METAR text: LPMA 061200Z 01018G28KT 330V050 9999 -SHRA FEW016 BKN030 18/11 Q1022
Conditions at: LPMA (FUNCHAL/MADEIRA , PT) observed 1200 UTC 06 December 2019
Temperature: 18.0°C (64°F)
Dewpoint: 11.0°C (52°F) [RH = 64%]
Pressure (altimeter): 30.18 inches Hg (1022.0 mb)
Winds: from the N (10 degrees) at 21 MPH (18 knots; 9.3 m/s)
gusting to 32 MPH (28 knots; 14.4 m/s)
Visibility: 6 or more miles (10+ km)
Ceiling: 3000 feet AGL
Clouds: few clouds at 1600 feet AGL
broken clouds at 3000 feet AGL
Weather: -SHRA  (light rain showers)

METAR text: LPMA 061130Z 01016G30KT 330V050 9999 FEW016 BKN030 18/10 Q1022
Conditions at: LPMA (FUNCHAL/MADEIRA , PT) observed 1130 UTC 06 December 2019
Temperature: 18.0°C (64°F)
Dewpoint: 10.0°C (50°F) [RH = 59%]
Pressure (altimeter): 30.18 inches Hg (1022.0 mb)
Winds: from the N (10 degrees) at 18 MPH (16 knots; 8.2 m/s)
gusting to 34 MPH (30 knots; 15.4 m/s)
Visibility: 6 or more miles (10+ km)
Ceiling: 3000 feet AGL
Clouds: few clouds at 1600 feet AGL
broken clouds at 3000 feet AGL
Weather: no significant weather observed at this time

METAR text: LPMA 061100Z 01012G25KT 330V050 9999 SCT016 BKN030 18/10 Q1023
Conditions at: LPMA (FUNCHAL/MADEIRA , PT) observed 1100 UTC 06 December 2019
Temperature: 18.0°C (64°F)
Dewpoint: 10.0°C (50°F) [RH = 59%]
Pressure (altimeter): 30.21 inches Hg (1023.0 mb)
Winds: from the N (10 degrees) at 14 MPH (12 knots; 6.2 m/s)
gusting to 29 MPH (25 knots; 12.9 m/s)
Visibility: 6 or more miles (10+ km)
Ceiling: 3000 feet AGL
Clouds: scattered clouds at 1600 feet AGL
broken clouds at 3000 feet AGL
Weather: no significant weather observed at this time

METAR text: LPMA 061030Z 01018G32KT 340V040 9999 SCT016 BKN030 18/10 Q1022
Conditions at: LPMA (FUNCHAL/MADEIRA , PT) observed 1030 UTC 06 December 2019
Temperature: 18.0°C (64°F)
Dewpoint: 10.0°C (50°F) [RH = 59%]
Pressure (altimeter): 30.18 inches Hg (1022.0 mb)
Winds: from the N (10 degrees) at 21 MPH (18 knots; 9.3 m/s)
gusting to 37 MPH (32 knots; 16.5 m/s)
Visibility: 6 or more miles (10+ km)
Ceiling: 3000 feet AGL
Clouds: scattered clouds at 1600 feet AGL
broken clouds at 3000 feet AGL
Weather: no significant weather observed at this time

METAR text: LPMA 061000Z 36015G30KT 310V040 9999 SCT015 BKN030 18/10 Q1022
Conditions at: LPMA (FUNCHAL/MADEIRA , PT) observed 1000 UTC 06 December 2019
Temperature: 18.0°C (64°F)
Dewpoint: 10.0°C (50°F) [RH = 59%]
Pressure (altimeter): 30.18 inches Hg (1022.0 mb)
Winds: from the N (360 degrees) at 17 MPH (15 knots; 7.7 m/s)
gusting to 34 MPH (30 knots; 15.4 m/s)
Visibility: 6 or more miles (10+ km)
Ceiling: 3000 feet AGL
Clouds: scattered clouds at 1500 feet AGL
broken clouds at 3000 feet AGL
Weather: no significant weather observed at this time

METAR text: LPMA 060930Z 01016KT 330V040 9999 SCT015 BKN030 18/11 Q1022
Conditions at: LPMA (FUNCHAL/MADEIRA , PT) observed 0930 UTC 06 December 2019
Temperature: 18.0°C (64°F)
Dewpoint: 11.0°C (52°F) [RH = 64%]
Pressure (altimeter): 30.18 inches Hg (1022.0 mb)
Winds: from the N (10 degrees) at 18 MPH (16 knots; 8.2 m/s)
Visibility: 6 or more miles (10+ km)
Ceiling: 3000 feet AGL
Clouds: scattered clouds at 1500 feet AGL
broken clouds at 3000 feet AGL
Weather: no significant weather observed at this time

METAR text: LPMA 060900Z 36018G28KT 330V030 9999 SCT015 BKN030 18/10 Q1021
Conditions at: LPMA (FUNCHAL/MADEIRA , PT) observed 0900 UTC 06 December 2019
Temperature: 18.0°C (64°F)
Dewpoint: 10.0°C (50°F) [RH = 59%]
Pressure (altimeter): 30.15 inches Hg (1021.0 mb)
Winds: from the N (360 degrees) at 21 MPH (18 knots; 9.3 m/s)
gusting to 32 MPH (28 knots; 14.4 m/s)
Visibility: 6 or more miles (10+ km)
Ceiling: 3000 feet AGL
Clouds: scattered clouds at 1500 feet AGL
broken clouds at 3000 feet AGL
Weather: no significant weather observed at this time

METAR text: LPMA 060830Z 36014G24KT 320V040 9999 SCT015 BKN030 18/11 Q1021
Conditions at: LPMA (FUNCHAL/MADEIRA , PT) observed 0830 UTC 06 December 2019
Temperature: 18.0°C (64°F)
Dewpoint: 11.0°C (52°F) [RH = 64%]
Pressure (altimeter): 30.15 inches Hg (1021.0 mb)
Winds: from the N (360 degrees) at 16 MPH (14 knots; 7.2 m/s)
gusting to 28 MPH (24 knots; 12.3 m/s)
Visibility: 6 or more miles (10+ km)
Ceiling: 3000 feet AGL
Clouds: scattered clouds at 1500 feet AGL
broken clouds at 3000 feet AGL
Weather: no significant weather observed at this time

METAR text: LPMA 060800Z 01013KT 320V050 9999 FEW016 18/10 Q1021
Conditions at: LPMA (FUNCHAL/MADEIRA , PT) observed 0800 UTC 06 December 2019
Temperature: 18.0°C (64°F)
Dewpoint: 10.0°C (50°F) [RH = 59%]
Pressure (altimeter): 30.15 inches Hg (1021.0 mb)
Winds: from the N (10 degrees) at 15 MPH (13 knots; 6.7 m/s)
Visibility: 6 or more miles (10+ km)
Ceiling: at least 12,000 feet AGL
Clouds: few clouds at 1600 feet AGL
Weather: no significant weather observed at this time

METAR text: LPMA 060730Z 02016KT 350V070 9999 SCT016 18/11 Q1020
Conditions at: LPMA (FUNCHAL/MADEIRA , PT) observed 0730 UTC 06 December 2019
Temperature: 18.0°C (64°F)
Dewpoint: 11.0°C (52°F) [RH = 64%]
Pressure (altimeter): 30.12 inches Hg (1020.0 mb)
Winds: from the NNE (20 degrees) at 18 MPH (16 knots; 8.2 m/s)
Visibility: 6 or more miles (10+ km)
Ceiling: at least 12,000 feet AGL
Clouds: scattered clouds at 1600 feet AGL
Weather: no significant weather observed at this time

METAR text: LPMA 060700Z 01018G36KT 310V040 9999 SCT016 18/11 Q1020
Conditions at: LPMA (FUNCHAL/MADEIRA , PT) observed 0700 UTC 06 December 2019
Temperature: 18.0°C (64°F)
Dewpoint: 11.0°C (52°F) [RH = 64%]
Pressure (altimeter): 30.12 inches Hg (1020.0 mb)
Winds: from the N (10 degrees) at 21 MPH (18 knots; 9.3 m/s)
gusting to 41 MPH (36 knots; 18.5 m/s)
Visibility: 6 or more miles (10+ km)
Ceiling: at least 12,000 feet AGL
Clouds: scattered clouds at 1600 feet AGL
Weather: no significant weather observed at this time

METAR text: LPMA 060630Z 02017G30KT 9999 SCT016 18/11 Q1019
Conditions at: LPMA (FUNCHAL/MADEIRA , PT) observed 0630 UTC 06 December 2019
Temperature: 18.0°C (64°F)
Dewpoint: 11.0°C (52°F) [RH = 64%]
Pressure (altimeter): 30.09 inches Hg (1019.0 mb)
Winds: from the NNE (20 degrees) at 20 MPH (17 knots; 8.7 m/s)
gusting to 34 MPH (30 knots; 15.4 m/s)
Visibility: 6 or more miles (10+ km)
Ceiling: at least 12,000 feet AGL
Clouds: scattered clouds at 1600 feet AGL
Weather: no significant weather observed at this time

METAR text: LPMA 060600Z 02016G29KT 350V050 9999 SCT016 18/11 Q1019
Conditions at: LPMA (FUNCHAL/MADEIRA , PT) observed 0600 UTC 06 December 2019
Temperature: 18.0°C (64°F)
Dewpoint: 11.0°C (52°F) [RH = 64%]
Pressure (altimeter): 30.09 inches Hg (1019.0 mb)
Winds: from the NNE (20 degrees) at 18 MPH (16 knots; 8.2 m/s)
gusting to 33 MPH (29 knots; 14.9 m/s)
Visibility: 6 or more miles (10+ km)
Ceiling: at least 12,000 feet AGL
Clouds: scattered clouds at 1600 feet AGL
Weather: no significant weather observed at this time

METAR text: LPMA 060530Z 01016G26KT 350V050 9999 SCT016 18/12 Q1019
Conditions at: LPMA (FUNCHAL/MADEIRA , PT) observed 0530 UTC 06 December 2019
Temperature: 18.0°C (64°F)
Dewpoint: 12.0°C (54°F) [RH = 68%]
Pressure (altimeter): 30.09 inches Hg (1019.0 mb)
Winds: from the N (10 degrees) at 18 MPH (16 knots; 8.2 m/s)
gusting to 30 MPH (26 knots; 13.4 m/s)
Visibility: 6 or more miles (10+ km)
Ceiling: at least 12,000 feet AGL
Clouds: scattered clouds at 1600 feet AGL
Weather: no significant weather observed at this time

METAR text: LPMA 060500Z 01016G28KT 340V040 9999 SCT016 18/12 Q1019
Conditions at: LPMA (FUNCHAL/MADEIRA , PT) observed 0500 UTC 06 December 2019
Temperature: 18.0°C (64°F)
Dewpoint: 12.0°C (54°F) [RH = 68%]
Pressure (altimeter): 30.09 inches Hg (1019.0 mb)
Winds: from the N (10 degrees) at 18 MPH (16 knots; 8.2 m/s)
gusting to 32 MPH (28 knots; 14.4 m/s)
Visibility: 6 or more miles (10+ km)
Ceiling: at least 12,000 feet AGL
Clouds: scattered clouds at 1600 feet AGL
Weather: no significant weather observed at this time

METAR text: LPMA 060430Z 01012G23KT 340V050 9999 SCT016 17/11 Q1019
Conditions at: LPMA (FUNCHAL/MADEIRA , PT) observed 0430 UTC 06 December 2019
Temperature: 17.0°C (63°F)
Dewpoint: 11.0°C (52°F) [RH = 68%]
Pressure (altimeter): 30.09 inches Hg (1019.0 mb)
Winds: from the N (10 degrees) at 14 MPH (12 knots; 6.2 m/s)
gusting to 26 MPH (23 knots; 11.8 m/s)
Visibility: 6 or more miles (10+ km)
Ceiling: at least 12,000 feet AGL
Clouds: scattered clouds at 1600 feet AGL
Weather: no significant weather observed at this time

METAR text: LPMA 060400Z 01014KT 330V030 9999 SCT016 18/11 Q1020
Conditions at: LPMA (FUNCHAL/MADEIRA , PT) observed 0400 UTC 06 December 2019
Temperature: 18.0°C (64°F)
Dewpoint: 11.0°C (52°F) [RH = 64%]
Pressure (altimeter): 30.12 inches Hg (1020.0 mb)
Winds: from the N (10 degrees) at 16 MPH (14 knots; 7.2 m/s)
Visibility: 6 or more miles (10+ km)
Ceiling: at least 12,000 feet AGL
Clouds: scattered clouds at 1600 feet AGL
Weather: no significant weather observed at this time

METAR text: LPMA 060330Z 02016KT 350V050 9999 SCT016 17/13 Q1020
Conditions at: LPMA (FUNCHAL/MADEIRA , PT) observed 0330 UTC 06 December 2019
Temperature: 17.0°C (63°F)
Dewpoint: 13.0°C (55°F) [RH = 77%]
Pressure (altimeter): 30.12 inches Hg (1020.0 mb)
Winds: from the NNE (20 degrees) at 18 MPH (16 knots; 8.2 m/s)
Visibility: 6 or more miles (10+ km)
Ceiling: at least 12,000 feet AGL
Clouds: scattered clouds at 1600 feet AGL
Weather: no significant weather observed at this time

METAR text: LPMA 060300Z 02017G31KT 350V050 9999 SCT016 17/13 Q1019
Conditions at: LPMA (FUNCHAL/MADEIRA , PT) observed 0300 UTC 06 December 2019
Temperature: 17.0°C (63°F)
Dewpoint: 13.0°C (55°F) [RH = 77%]
Pressure (altimeter): 30.09 inches Hg (1019.0 mb)
Winds: from the NNE (20 degrees) at 20 MPH (17 knots; 8.7 m/s)
gusting to 36 MPH (31 knots; 15.9 m/s)
Visibility: 6 or more miles (10+ km)
Ceiling: at least 12,000 feet AGL
Clouds: scattered clouds at 1600 feet AGL
Weather: no significant weather observed at this time

METAR text: LPMA 060230Z 01020G31KT 330V040 9999 -SHRA SCT016 18/11 Q1019
Conditions at: LPMA (FUNCHAL/MADEIRA , PT) observed 0230 UTC 06 December 2019
Temperature: 18.0°C (64°F)
Dewpoint: 11.0°C (52°F) [RH = 64%]
Pressure (altimeter): 30.09 inches Hg (1019.0 mb)
Winds: from the N (10 degrees) at 23 MPH (20 knots; 10.3 m/s)
gusting to 36 MPH (31 knots; 15.9 m/s)
Visibility: 6 or more miles (10+ km)
Ceiling: at least 12,000 feet AGL
Clouds: scattered clouds at 1600 feet AGL
Weather: -SHRA  (light rain showers)

METAR text: LPMA 060200Z 02020KT 9999 SCT016 18/12 Q1019
Conditions at: LPMA (FUNCHAL/MADEIRA , PT) observed 0200 UTC 06 December 2019
Temperature: 18.0°C (64°F)
Dewpoint: 12.0°C (54°F) [RH = 68%]
Pressure (altimeter): 30.09 inches Hg (1019.0 mb)
Winds: from the NNE (20 degrees) at 23 MPH (20 knots; 10.3 m/s)
Visibility: 6 or more miles (10+ km)
Ceiling: at least 12,000 feet AGL
Clouds: scattered clouds at 1600 feet AGL
Weather: no significant weather observed at this time

METAR text: LPMA 060130Z 01019G33KT 300V050 9999 SCT016 18/11 Q1019
Conditions at: LPMA (FUNCHAL/MADEIRA , PT) observed 0130 UTC 06 December 2019
Temperature: 18.0°C (64°F)
Dewpoint: 11.0°C (52°F) [RH = 64%]
Pressure (altimeter): 30.09 inches Hg (1019.0 mb)
Winds: from the N (10 degrees) at 22 MPH (19 knots; 9.8 m/s)
gusting to 38 MPH (33 knots; 17.0 m/s)
Visibility: 6 or more miles (10+ km)
Ceiling: at least 12,000 feet AGL
Clouds: scattered clouds at 1600 feet AGL
Weather: no significant weather observed at this time

METAR text: LPMA 060100Z 01023KT 9999 SCT016 18/12 Q1019
Conditions at: LPMA (FUNCHAL/MADEIRA , PT) observed 0100 UTC 06 December 2019
Temperature: 18.0°C (64°F)
Dewpoint: 12.0°C (54°F) [RH = 68%]
Pressure (altimeter): 30.09 inches Hg (1019.0 mb)
Winds: from the N (10 degrees) at 26 MPH (23 knots; 11.8 m/s)
Visibility: 6 or more miles (10+ km)
Ceiling: at least 12,000 feet AGL
Clouds: scattered clouds at 1600 feet AGL
Weather: no significant weather observed at this time

METAR text: LPMA 060030Z 02018KT 350V050 9999 SCT016 18/13 Q1019
Conditions at: LPMA (FUNCHAL/MADEIRA , PT) observed 0030 UTC 06 December 2019
Temperature: 18.0°C (64°F)
Dewpoint: 13.0°C (55°F) [RH = 73%]
Pressure (altimeter): 30.09 inches Hg (1019.0 mb)
Winds: from the NNE (20 degrees) at 21 MPH (18 knots; 9.3 m/s)
Visibility: 6 or more miles (10+ km)
Ceiling: at least 12,000 feet AGL
Clouds: scattered clouds at 1600 feet AGL
Weather: no significant weather observed at this time

METAR text: LPMA 060000Z 02023G33KT 350V050 9999 SCT016 18/11 Q1019
Conditions at: LPMA (FUNCHAL/MADEIRA , PT) observed 0000 UTC 06 December 2019
Temperature: 18.0°C (64°F)
Dewpoint: 11.0°C (52°F) [RH = 64%]
Pressure (altimeter): 30.09 inches Hg (1019.0 mb)
Winds: from the NNE (20 degrees) at 26 MPH (23 knots; 11.8 m/s)
gusting to 38 MPH (33 knots; 17.0 m/s)
Visibility: 6 or more miles (10+ km)
Ceiling: at least 12,000 feet AGL
Clouds: scattered clouds at 1600 feet AGL
Weather: no significant weather observed at this time

METAR text: LPMA 052330Z 02024G35KT 350V050 9999 SCT016 18/12 Q1019
Conditions at: LPMA (FUNCHAL/MADEIRA , PT) observed 2330 UTC 05 December 2019
Temperature: 18.0°C (64°F)
Dewpoint: 12.0°C (54°F) [RH = 68%]
Pressure (altimeter): 30.09 inches Hg (1019.0 mb)
Winds: from the NNE (20 degrees) at 28 MPH (24 knots; 12.3 m/s)
gusting to 40 MPH (35 knots; 18.0 m/s)
Visibility: 6 or more miles (10+ km)
Ceiling: at least 12,000 feet AGL
Clouds: scattered clouds at 1600 feet AGL
Weather: no significant weather observed at this time

METAR text: LPMA 052300Z 02023G34KT 350V050 9999 SCT016 18/11 Q1019
Conditions at: LPMA (FUNCHAL/MADEIRA , PT) observed 2300 UTC 05 December 2019
Temperature: 18.0°C (64°F)
Dewpoint: 11.0°C (52°F) [RH = 64%]
Pressure (altimeter): 30.09 inches Hg (1019.0 mb)
Winds: from the NNE (20 degrees) at 26 MPH (23 knots; 11.8 m/s)
gusting to 39 MPH (34 knots; 17.5 m/s)
Visibility: 6 or more miles (10+ km)
Ceiling: at least 12,000 feet AGL
Clouds: scattered clouds at 1600 feet AGL
Weather: no significant weather observed at this time

METAR text: LPMA 052230Z 02023G34KT 9999 SCT016 18/11 Q1019
Conditions at: LPMA (FUNCHAL/MADEIRA , PT) observed 2230 UTC 05 December 2019
Temperature: 18.0°C (64°F)
Dewpoint: 11.0°C (52°F) [RH = 64%]
Pressure (altimeter): 30.09 inches Hg (1019.0 mb)
Winds: from the NNE (20 degrees) at 26 MPH (23 knots; 11.8 m/s)
gusting to 39 MPH (34 knots; 17.5 m/s)
Visibility: 6 or more miles (10+ km)
Ceiling: at least 12,000 feet AGL
Clouds: scattered clouds at 1600 feet AGL
Weather: no significant weather observed at this time

METAR text: LPMA 052200Z 02022G33KT 350V050 9999 SCT016 18/11 Q1019
Conditions at: LPMA (FUNCHAL/MADEIRA , PT) observed 2200 UTC 05 December 2019
Temperature: 18.0°C (64°F)
Dewpoint: 11.0°C (52°F) [RH = 64%]
Pressure (altimeter): 30.09 inches Hg (1019.0 mb)
Winds: from the NNE (20 degrees) at 25 MPH (22 knots; 11.3 m/s)
gusting to 38 MPH (33 knots; 17.0 m/s)
Visibility: 6 or more miles (10+ km)
Ceiling: at least 12,000 feet AGL
Clouds: scattered clouds at 1600 feet AGL
Weather: no significant weather observed at this time

METAR text: LPMA 052130Z 02023G35KT 9999 SCT016 18/11 Q1019
Conditions at: LPMA (FUNCHAL/MADEIRA , PT) observed 2130 UTC 05 December 2019
Temperature: 18.0°C (64°F)
Dewpoint: 11.0°C (52°F) [RH = 64%]
Pressure (altimeter): 30.09 inches Hg (1019.0 mb)
Winds: from the NNE (20 degrees) at 26 MPH (23 knots; 11.8 m/s)
gusting to 40 MPH (35 knots; 18.0 m/s)
Visibility: 6 or more miles (10+ km)
Ceiling: at least 12,000 feet AGL
Clouds: scattered clouds at 1600 feet AGL
Weather: no significant weather observed at this time

METAR text: LPMA 052100Z 01024G36KT 340V050 9999 SCT016 FEW018TCU 17/12 Q1018
Conditions at: LPMA (FUNCHAL/MADEIRA , PT) observed 2100 UTC 05 December 2019
Temperature: 17.0°C (63°F)
Dewpoint: 12.0°C (54°F) [RH = 72%]
Pressure (altimeter): 30.06 inches Hg (1018.0 mb)
Winds: from the N (10 degrees) at 28 MPH (24 knots; 12.3 m/s)
gusting to 41 MPH (36 knots; 18.5 m/s)
Visibility: 6 or more miles (10+ km)
Ceiling: at least 12,000 feet AGL
Clouds: scattered clouds at 1600 feet AGL
few clouds at 1800 feet AGL
Weather: no significant weather observed at this time

METAR text: LPMA 052030Z 02024G34KT 9999 -SHRA SCT016 FEW018TCU 17/13 Q1018
Conditions at: LPMA (FUNCHAL/MADEIRA , PT) observed 2030 UTC 05 December 2019
Temperature: 17.0°C (63°F)
Dewpoint: 13.0°C (55°F) [RH = 77%]
Pressure (altimeter): 30.06 inches Hg (1018.0 mb)
Winds: from the NNE (20 degrees) at 28 MPH (24 knots; 12.3 m/s)
gusting to 39 MPH (34 knots; 17.5 m/s)
Visibility: 6 or more miles (10+ km)
Ceiling: at least 12,000 feet AGL
Clouds: scattered clouds at 1600 feet AGL
few clouds at 1800 feet AGL
Weather: -SHRA  (light rain showers)

METAR text: LPMA 052000Z 01022G38KT 330V030 9999 -SHRA SCT016 FEW018TCU 17/13 Q1018
Conditions at: LPMA (FUNCHAL/MADEIRA , PT) observed 2000 UTC 05 December 2019
Temperature: 17.0°C (63°F)
Dewpoint: 13.0°C (55°F) [RH = 77%]
Pressure (altimeter): 30.06 inches Hg (1018.0 mb)
Winds: from the N (10 degrees) at 25 MPH (22 knots; 11.3 m/s)
gusting to 44 MPH (38 knots; 19.5 m/s)
Visibility: 6 or more miles (10+ km)
Ceiling: at least 12,000 feet AGL
Clouds: scattered clouds at 1600 feet AGL
few clouds at 1800 feet AGL
Weather: -SHRA  (light rain showers)

METAR text: LPMA 051930Z 01022G37KT 340V050 9999 FEW016 FEW018TCU 17/12 Q1018
Conditions at: LPMA (FUNCHAL/MADEIRA , PT) observed 1930 UTC 05 December 2019
Temperature: 17.0°C (63°F)
Dewpoint: 12.0°C (54°F) [RH = 72%]
Pressure (altimeter): 30.06 inches Hg (1018.0 mb)
Winds: from the N (10 degrees) at 25 MPH (22 knots; 11.3 m/s)
gusting to 43 MPH (37 knots; 19.0 m/s)
Visibility: 6 or more miles (10+ km)
Ceiling: at least 12,000 feet AGL
Clouds: few clouds at 1600 feet AGL
few clouds at 1800 feet AGL
Weather: no significant weather observed at this time

METAR text: LPMA 051900Z 02027G47KT 9999 SCT016 FEW018TCU 17/13 Q1017
Conditions at: LPMA (FUNCHAL/MADEIRA , PT) observed 1900 UTC 05 December 2019
Temperature: 17.0°C (63°F)
Dewpoint: 13.0°C (55°F) [RH = 77%]
Pressure (altimeter): 30.03 inches Hg (1017.0 mb)
Winds: from the NNE (20 degrees) at 31 MPH (27 knots; 13.9 m/s)
gusting to 54 MPH (47 knots; 24.2 m/s)
Visibility: 6 or more miles (10+ km)
Ceiling: at least 12,000 feet AGL
Clouds: scattered clouds at 1600 feet AGL
few clouds at 1800 feet AGL
Weather: no significant weather observed at this time

METAR text: LPMA 051830Z 01022G40KT 330V030 9999 SCT016 FEW018TCU 17/12 Q1017
Conditions at: LPMA (FUNCHAL/MADEIRA , PT) observed 1830 UTC 05 December 2019
Temperature: 17.0°C (63°F)
Dewpoint: 12.0°C (54°F) [RH = 72%]
Pressure (altimeter): 30.03 inches Hg (1017.0 mb)
Winds: from the N (10 degrees) at 25 MPH (22 knots; 11.3 m/s)
gusting to 46 MPH (40 knots; 20.6 m/s)
Visibility: 6 or more miles (10+ km)
Ceiling: at least 12,000 feet AGL
Clouds: scattered clouds at 1600 feet AGL
few clouds at 1800 feet AGL
Weather: no significant weather observed at this time

METAR text: LPMA 051800Z 01022G36KT 330V030 9999 -SHRA SCT016 17/12 Q1016
Conditions at: LPMA (FUNCHAL/MADEIRA , PT) observed 1800 UTC 05 December 2019
Temperature: 17.0°C (63°F)
Dewpoint: 12.0°C (54°F) [RH = 72%]
Pressure (altimeter): 30.00 inches Hg (1016.0 mb)
Winds: from the N (10 degrees) at 25 MPH (22 knots; 11.3 m/s)
gusting to 41 MPH (36 knots; 18.5 m/s)
Visibility: 6 or more miles (10+ km)
Ceiling: at least 12,000 feet AGL
Clouds: scattered clouds at 1600 feet AGL
Weather: -SHRA  (light rain showers)

METAR text: LPMA 051730Z 01023G36KT 330V030 9999 -SHRA BKN016 18/12 Q1016
Conditions at: LPMA (FUNCHAL/MADEIRA , PT) observed 1730 UTC 05 December 2019
Temperature: 18.0°C (64°F)
Dewpoint: 12.0°C (54°F) [RH = 68%]
Pressure (altimeter): 30.00 inches Hg (1016.0 mb)
Winds: from the N (10 degrees) at 26 MPH (23 knots; 11.8 m/s)
gusting to 41 MPH (36 knots; 18.5 m/s)
Visibility: 6 or more miles (10+ km)
Ceiling: 1600 feet AGL
Clouds: broken clouds at 1600 feet AGL
Weather: -SHRA  (light rain showers)

METAR text: LPMA 051700Z 01025KT 330V030 9999 SCT016 18/11 Q1016
Conditions at: LPMA (FUNCHAL/MADEIRA , PT) observed 1700 UTC 05 December 2019
Temperature: 18.0°C (64°F)
Dewpoint: 11.0°C (52°F) [RH = 64%]
Pressure (altimeter): 30.00 inches Hg (1016.0 mb)
Winds: from the N (10 degrees) at 29 MPH (25 knots; 12.9 m/s)
Visibility: 6 or more miles (10+ km)
Ceiling: at least 12,000 feet AGL
Clouds: scattered clouds at 1600 feet AGL
Weather: no significant weather observed at this time

METAR text: LPMA 051630Z 01027G42KT 330V030 9999 SCT016 FEW018TCU 18/11 Q1016
Conditions at: LPMA (FUNCHAL/MADEIRA , PT) observed 1630 UTC 05 December 2019
Temperature: 18.0°C (64°F)
Dewpoint: 11.0°C (52°F) [RH = 64%]
Pressure (altimeter): 30.00 inches Hg (1016.0 mb)
Winds: from the N (10 degrees) at 31 MPH (27 knots; 13.9 m/s)
gusting to 48 MPH (42 knots; 21.6 m/s)
Visibility: 6 or more miles (10+ km)
Ceiling: at least 12,000 feet AGL
Clouds: scattered clouds at 1600 feet AGL
few clouds at 1800 feet AGL
Weather: no significant weather observed at this time

METAR text: LPMA 051600Z 01019G33KT 320V040 9999 SCT016 FEW018TCU 18/11 Q1016
Conditions at: LPMA (FUNCHAL/MADEIRA , PT) observed 1600 UTC 05 December 2019
Temperature: 18.0°C (64°F)
Dewpoint: 11.0°C (52°F) [RH = 64%]
Pressure (altimeter): 30.00 inches Hg (1016.0 mb)
Winds: from the N (10 degrees) at 22 MPH (19 knots; 9.8 m/s)
gusting to 38 MPH (33 knots; 17.0 m/s)
Visibility: 6 or more miles (10+ km)
Ceiling: at least 12,000 feet AGL
Clouds: scattered clouds at 1600 feet AGL
few clouds at 1800 feet AGL
Weather: no significant weather observed at this time

METAR text: LPMA 051530Z 01025G40KT 340V040 9999 SCT016 18/10 Q1016
Conditions at: LPMA (FUNCHAL/MADEIRA , PT) observed 1530 UTC 05 December 2019
Temperature: 18.0°C (64°F)
Dewpoint: 10.0°C (50°F) [RH = 59%]
Pressure (altimeter): 30.00 inches Hg (1016.0 mb)
Winds: from the N (10 degrees) at 29 MPH (25 knots; 12.9 m/s)
gusting to 46 MPH (40 knots; 20.6 m/s)
Visibility: 6 or more miles (10+ km)
Ceiling: at least 12,000 feet AGL
Clouds: scattered clouds at 1600 feet AGL
Weather: no significant weather observed at this time

METAR text: LPMA 051500Z 01026G47KT 340V040 9999 SCT016 19/09 Q1015
Conditions at: LPMA (FUNCHAL/MADEIRA , PT) observed 1500 UTC 05 December 2019
Temperature: 19.0°C (66°F)
Dewpoint: 9.0°C (48°F) [RH = 52%]
Pressure (altimeter): 29.97 inches Hg (1015.0 mb)
Winds: from the N (10 degrees) at 30 MPH (26 knots; 13.4 m/s)
gusting to 54 MPH (47 knots; 24.2 m/s)
Visibility: 6 or more miles (10+ km)
Ceiling: at least 12,000 feet AGL
Clouds: scattered clouds at 1600 feet AGL
Weather: no significant weather observed at this time

METAR text: LPMA 051430Z 01023G36KT 330V040 9999 SCT016 19/09 Q1015
Conditions at: LPMA (FUNCHAL/MADEIRA , PT) observed 1430 UTC 05 December 2019
Temperature: 19.0°C (66°F)
Dewpoint: 9.0°C (48°F) [RH = 52%]
Pressure (altimeter): 29.97 inches Hg (1015.0 mb)
Winds: from the N (10 degrees) at 26 MPH (23 knots; 11.8 m/s)
gusting to 41 MPH (36 knots; 18.5 m/s)
Visibility: 6 or more miles (10+ km)
Ceiling: at least 12,000 feet AGL
Clouds: scattered clouds at 1600 feet AGL
Weather: no significant weather observed at this time

METAR text: LPMA 051400Z 02026G38KT 9999 SCT015 FEW016TCU 19/09 Q1016
Conditions at: LPMA (FUNCHAL/MADEIRA , PT) observed 1400 UTC 05 December 2019
Temperature: 19.0°C (66°F)
Dewpoint: 9.0°C (48°F) [RH = 52%]
Pressure (altimeter): 30.00 inches Hg (1016.0 mb)
Winds: from the NNE (20 degrees) at 30 MPH (26 knots; 13.4 m/s)
gusting to 44 MPH (38 knots; 19.5 m/s)
Visibility: 6 or more miles (10+ km)
Ceiling: at least 12,000 feet AGL
Clouds: scattered clouds at 1500 feet AGL
few clouds at 1600 feet AGL
Weather: no significant weather observed at this time

METAR text: LPMA 051330Z 01025G43KT 330V040 9999 BKN015 FEW016TCU 19/09 Q1016
Conditions at: LPMA (FUNCHAL/MADEIRA , PT) observed 1330 UTC 05 December 2019
Temperature: 19.0°C (66°F)
Dewpoint: 9.0°C (48°F) [RH = 52%]
Pressure (altimeter): 30.00 inches Hg (1016.0 mb)
Winds: from the N (10 degrees) at 29 MPH (25 knots; 12.9 m/s)
gusting to 49 MPH (43 knots; 22.1 m/s)
Visibility: 6 or more miles (10+ km)
Ceiling: 1500 feet AGL
Clouds: broken clouds at 1500 feet AGL
few clouds at 1600 feet AGL
Weather: no significant weather observed at this time

METAR text: LPMA 051300Z 01021G38KT 330V040 9000 VCSH BKN015 FEW016TCU 18/10 Q1016
Conditions at: LPMA (FUNCHAL/MADEIRA , PT) observed 1300 UTC 05 December 2019
Temperature: 18.0°C (64°F)
Dewpoint: 10.0°C (50°F) [RH = 59%]
Pressure (altimeter): 30.00 inches Hg (1016.0 mb)
Winds: from the N (10 degrees) at 24 MPH (21 knots; 10.8 m/s)
gusting to 44 MPH (38 knots; 19.5 m/s)
Visibility: 6 miles ( 9 km)
Ceiling: 1500 feet AGL
Clouds: broken clouds at 1500 feet AGL
few clouds at 1600 feet AGL
Weather: VCSH  (showers in vicinity)

METAR text: LPMA 051230Z 01023G37KT 330V050 9999 SCT015 FEW016TCU 18/09 Q1017
Conditions at: LPMA (FUNCHAL/MADEIRA , PT) observed 1230 UTC 05 December 2019
Temperature: 18.0°C (64°F)
Dewpoint: 9.0°C (48°F) [RH = 56%]
Pressure (altimeter): 30.03 inches Hg (1017.0 mb)
Winds: from the N (10 degrees) at 26 MPH (23 knots; 11.8 m/s)
gusting to 43 MPH (37 knots; 19.0 m/s)
Visibility: 6 or more miles (10+ km)
Ceiling: at least 12,000 feet AGL
Clouds: scattered clouds at 1500 feet AGL
few clouds at 1600 feet AGL
Weather: no significant weather observed at this time

METAR text: LPMA 051200Z 36022G34KT 320V040 9999 SCT015 FEW016TCU 18/10 Q1017
Conditions at: LPMA (FUNCHAL/MADEIRA , PT) observed 1200 UTC 05 December 2019
Temperature: 18.0°C (64°F)
Dewpoint: 10.0°C (50°F) [RH = 59%]
Pressure (altimeter): 30.03 inches Hg (1017.0 mb)
Winds: from the N (360 degrees) at 25 MPH (22 knots; 11.3 m/s)
gusting to 39 MPH (34 knots; 17.5 m/s)
Visibility: 6 or more miles (10+ km)
Ceiling: at least 12,000 feet AGL
Clouds: scattered clouds at 1500 feet AGL
few clouds at 1600 feet AGL
Weather: no significant weather observed at this time

METAR text: LPMA 051130Z 01025G38KT 340V040 9999 BKN015 FEW015TCU 18/10 Q1017
Conditions at: LPMA (FUNCHAL/MADEIRA , PT) observed 1130 UTC 05 December 2019
Temperature: 18.0°C (64°F)
Dewpoint: 10.0°C (50°F) [RH = 59%]
Pressure (altimeter): 30.03 inches Hg (1017.0 mb)
Winds: from the N (10 degrees) at 29 MPH (25 knots; 12.9 m/s)
gusting to 44 MPH (38 knots; 19.5 m/s)
Visibility: 6 or more miles (10+ km)
Ceiling: 1500 feet AGL
Clouds: broken clouds at 1500 feet AGL
few clouds at 1500 feet AGL
Weather: no significant weather observed at this time

METAR text: LPMA 051100Z 01025G44KT 340V040 9999 BKN015 FEW015TCU 17/10 Q1017
Conditions at: LPMA (FUNCHAL/MADEIRA , PT) observed 1100 UTC 05 December 2019
Temperature: 17.0°C (63°F)
Dewpoint: 10.0°C (50°F) [RH = 63%]
Pressure (altimeter): 30.03 inches Hg (1017.0 mb)
Winds: from the N (10 degrees) at 29 MPH (25 knots; 12.9 m/s)
gusting to 51 MPH (44 knots; 22.6 m/s)
Visibility: 6 or more miles (10+ km)
Ceiling: 1500 feet AGL
Clouds: broken clouds at 1500 feet AGL
few clouds at 1500 feet AGL
Weather: no significant weather observed at this time

METAR text: LPMA 051030Z 01028G45KT 330V040 8000 16/09 Q1017
Conditions at: LPMA (FUNCHAL/MADEIRA , PT) observed 1030 UTC 05 December 2019
Temperature: 16.0°C (61°F)
Dewpoint: 9.0°C (48°F) [RH = 63%]
Pressure (altimeter): 30.03 inches Hg (1017.0 mb)
Winds: from the N (10 degrees) at 32 MPH (28 knots; 14.4 m/s)
gusting to 52 MPH (45 knots; 23.1 m/s)
Visibility: 5 miles ( 8 km)
Ceiling: unknown
Clouds: missing
Weather: no significant weather observed at this time

METAR text: LPMA 051000Z 01024G35KT 320V040 8000 VCSH BKN015 FEW018TCU 16/10 Q1016
Conditions at: LPMA (FUNCHAL/MADEIRA , PT) observed 1000 UTC 05 December 2019
Temperature: 16.0°C (61°F)
Dewpoint: 10.0°C (50°F) [RH = 68%]
Pressure (altimeter): 30.00 inches Hg (1016.0 mb)
Winds: from the N (10 degrees) at 28 MPH (24 knots; 12.3 m/s)
gusting to 40 MPH (35 knots; 18.0 m/s)
Visibility: 5 miles ( 8 km)
Ceiling: 1500 feet AGL
Clouds: broken clouds at 1500 feet AGL
few clouds at 1800 feet AGL
Weather: VCSH  (showers in vicinity)

METAR text: LPMA 050930Z 01025G39KT 340V040 4000 SHRA DZ BKN015 FEW018TCU 16/11 Q1016
Conditions at: LPMA (FUNCHAL/MADEIRA , PT) observed 0930 UTC 05 December 2019
Temperature: 16.0°C (61°F)
Dewpoint: 11.0°C (52°F) [RH = 72%]
Pressure (altimeter): 30.00 inches Hg (1016.0 mb)
Winds: from the N (10 degrees) at 29 MPH (25 knots; 12.9 m/s)
gusting to 45 MPH (39 knots; 20.1 m/s)
Visibility: 2.49 miles (4.01 km)
Ceiling: 1500 feet AGL
Clouds: broken clouds at 1500 feet AGL
few clouds at 1800 feet AGL
Weather: SHRA DZ  (rain showers, moderate drizzle)

Forecast for: LPMA (FUNCHAL/MADEIRA , PT)
Text: TAF LPMA 061700Z 0618/0718 01015KT 9999 SCT015 SCT030
Forecast period: 1800 UTC 06 December 2019 to 1800 UTC 07 December 2019
Forecast type: FROM: standard forecast or significant change
Winds: from the N (10 degrees) at 17 MPH (15 knots; 7.7 m/s)
Visibility: 6 or more miles 10+ km)
Ceiling: at least 12,000 feet AGL
Clouds: scattered clouds at 1500 feet AGL
scattered clouds at 3000 feet AGL
Weather: no significant weather forecast for this period
Text: TEMPO 0618/0621 01020G30KT
Forecast period: 1800 to 2100 UTC 06 December 2019
Forecast type: TEMPORARY: The following changes expected for less than half the time period
Winds: from the N (10 degrees) at 23 MPH (20 knots; 10.3 m/s)
gusting to 34 MPH (30 knots; 15.4 m/s)
Visibility: missing
Ceiling: unknown
Clouds: missing
Weather: no significant weather forecast for this period
Text: PROB40
Forecast period: 2100 UTC 06 December 2019 to 0600 UTC 07 December 2019
Forecast type: TEMPORARY: The following changes expected for less than half the time period
Winds: from the N (10 degrees) at 23 MPH (20 knots; 10.3 m/s)
gusting to 34 MPH (30 knots; 15.4 m/s)
Visibility: missing
Ceiling: 1500 feet AGL
Clouds: broken clouds at 1500 feet AGL
Weather: no significant weather forecast for this period